TimeEDT,TemperatureF,Dew PointF,Humidity,Sea Level PressureIn,VisibilityMPH,Wind Direction,Wind SpeedMPH,Gust SpeedMPH,PrecipitationIn,Events,Conditions,WindDirDegrees,DateUTC
12:53 AM,73.0,69.1,87,29.80,9.0,Calm,Calm,-,N/A,,Clear,0,2013-06-26 04:53:00
1:53 AM,73.9,69.1,85,29.80,10.0,WNW,3.5,-,N/A,,Clear,300,2013-06-26 05:53:00
2:53 AM,73.0,64.9,76,29.81,10.0,Calm,Calm,-,N/A,,Scattered Clouds,0,2013-06-26 06:53:00
3:53 AM,72.0,64.0,76,29.81,10.0,West,3.5,-,N/A,,Clear,280,2013-06-26 07:53:00
4:53 AM,72.0,64.0,76,29.82,10.0,Calm,Calm,-,N/A,,Clear,0,2013-06-26 08:53:00
5:53 AM,71.1,64.0,78,29.83,10.0,Calm,Calm,-,N/A,,Clear,0,2013-06-26 09:53:00
6:53 AM,72.0,64.0,76,29.85,10.0,Calm,Calm,-,N/A,,Clear,0,2013-06-26 10:53:00
7:53 AM,75.9,64.9,69,29.84,10.0,Calm,Calm,-,N/A,,Clear,0,2013-06-26 11:53:00
8:53 AM,77.0,64.9,66,29.85,10.0,Variable,4.6,-,N/A,,Clear,0,2013-06-26 12:53:00
9:53 AM,80.1,66.0,62,29.84,10.0,Variable,3.5,-,N/A,,Clear,0,2013-06-26 13:53:00
10:53 AM,79.0,64.9,62,29.84,10.0,Variable,4.6,-,N/A,,Clear,0,2013-06-26 14:53:00
12:53 PM,82.0,66.0,58,29.84,10.0,SW,4.6,-,N/A,,Partly Cloudy,230,2013-06-26 16:53:00
1:53 PM,82.0,66.9,60,29.84,10.0,Variable,5.8,-,N/A,,Clear,0,2013-06-26 17:53:00
2:53 PM,86.0,66.9,53,29.82,10.0,Variable,4.6,-,N/A,,Clear,0,2013-06-26 18:53:00
3:53 PM,87.1,68.0,53,29.80,10.0,SSW,8.1,-,N/A,,Clear,200,2013-06-26 19:53:00
4:53 PM,88.0,66.0,48,29.78,10.0,Variable,4.6,-,N/A,,Clear,0,2013-06-26 20:53:00
5:53 PM,86.0,66.9,53,29.78,10.0,Calm,Calm,-,N/A,,Mostly Cloudy,0,2013-06-26 21:53:00
6:53 PM,82.0,72.0,71,29.77,10.0,Calm,Calm,-,0.00,,Scattered Clouds,0,2013-06-26 22:53:00
7:53 PM,80.1,71.1,74,29.79,10.0,Calm,Calm,-,N/A,,Clear,0,2013-06-26 23:53:00
8:53 PM,75.0,72.0,90,29.79,10.0,Calm,Calm,-,N/A,,Clear,0,2013-06-27 00:53:00
9:53 PM,75.9,72.0,87,29.79,10.0,Calm,Calm,-,N/A,,Overcast,0,2013-06-27 01:53:00
10:53 PM,75.0,72.0,90,29.81,10.0,Calm,Calm,-,N/A,,Overcast,0,2013-06-27 02:53:00
11:53 PM,75.0,72.0,90,29.81,10.0,Calm,Calm,-,N/A,,Overcast,0,2013-06-27 03:53:00